createdAt,value
2023-01-30T00:01:43.743Z,101314.50
2023-01-30T00:04:17.230Z,101311.75
2023-01-30T00:06:44.686Z,101311.41
2023-01-30T00:09:15.108Z,101304.81
2023-01-30T00:11:42.622Z,101283.38
2023-01-30T00:14:09.862Z,101272.72
2023-01-30T00:16:36.857Z,101276.59
2023-01-30T00:19:03.936Z,101268.72
2023-01-30T00:21:30.969Z,101270.81
2023-01-30T00:23:58.004Z,101271.47
2023-01-30T00:26:24.923Z,101270.78
2023-01-30T00:28:52.019Z,101256.97
2023-01-30T00:31:18.978Z,101261.47
2023-01-30T00:33:46.741Z,101248.06
2023-01-30T00:36:15.182Z,101245.66
2023-01-30T00:38:42.154Z,101245.66
2023-01-30T00:41:10.917Z,101231.97
2023-01-30T00:43:56.930Z,101227.59
2023-01-30T00:46:51.649Z,101238.91
2023-01-30T00:49:20.302Z,101239.38
2023-01-30T00:51:47.592Z,101231.50
2023-01-30T00:54:14.490Z,101216.47
2023-01-30T00:56:41.693Z,101220.38
2023-01-30T00:59:08.578Z,101213.28
2023-01-30T01:01:35.479Z,101201.03
2023-01-30T01:04:02.484Z,101205.88
2023-01-30T01:06:29.431Z,101207.50
2023-01-30T01:08:56.728Z,101203.94
2023-01-30T01:11:26.941Z,101203.13
2023-01-30T01:13:56.328Z,101193.78
2023-01-30T01:16:24.179Z,101189.09
2023-01-30T01:18:51.725Z,101197.31
2023-01-30T01:21:20.409Z,101194.56
2023-01-30T01:23:55.887Z,101200.84
2023-01-30T01:26:23.157Z,101199.75
2023-01-30T01:28:51.141Z,101197.97
2023-01-30T01:31:18.437Z,101185.56
2023-01-30T01:33:45.444Z,101195.06
2023-01-30T01:36:20.068Z,101193.94
2023-01-30T01:38:56.630Z,101194.41
2023-01-30T01:41:23.794Z,101199.53
2023-01-30T01:44:03.963Z,101196.97
2023-01-30T01:46:36.479Z,101184.22
2023-01-30T01:49:08.228Z,101184.38
2023-01-30T01:51:40.085Z,101188.72
2023-01-30T01:54:12.354Z,101186.78
2023-01-30T01:56:45.946Z,101187.94
2023-01-30T01:59:37.868Z,101185.66
2023-01-30T02:02:11.208Z,101186.13
2023-01-30T02:05:00.733Z,101184.69
2023-01-30T02:07:31.541Z,101183.75
2023-01-30T02:09:58.572Z,101183.56
2023-01-30T02:12:25.877Z,101180.50
2023-01-30T02:14:56.269Z,101169.38
2023-01-30T02:17:24.422Z,101171.31
2023-01-30T02:20:07.799Z,101169.38
2023-01-30T02:22:52.352Z,101171.31
2023-01-30T02:25:43.957Z,101177.59
2023-01-30T02:28:25.203Z,101171.78
2023-01-30T02:31:22.052Z,101172.28
2023-01-30T02:34:32.090Z,101157.59
2023-01-30T02:37:08.126Z,101144.09
2023-01-30T02:39:45.254Z,101147.47
2023-01-30T02:42:25.099Z,101139.13
2023-01-30T02:45:05.578Z,101141.06
2023-01-30T02:47:45.266Z,101148.16
2023-01-30T02:50:21.382Z,101148.66
2023-01-30T02:52:48.997Z,101158.16
2023-01-30T02:55:26.579Z,101151.53
2023-01-30T02:57:54.157Z,101145.88
2023-01-30T03:00:32.804Z,101153.13
2023-01-30T03:03:18.793Z,101159.88
2023-01-30T03:05:51.511Z,101155.03
2023-01-30T03:08:47.763Z,101144.09
2023-01-30T03:11:15.204Z,101144.47
2023-01-30T03:13:45.805Z,101150.44
2023-01-30T03:16:40.111Z,101140.78
2023-01-30T03:19:12.406Z,101159.31
2023-01-30T03:21:44.761Z,101160.44
2023-01-30T03:24:15.802Z,101151.25
2023-01-30T03:26:49.000Z,101152.84
2023-01-30T03:29:16.837Z,101155.28
2023-01-30T03:31:44.344Z,101154.94
2023-01-30T03:34:11.542Z,101158.69
2023-01-30T03:36:39.790Z,101151.41
2023-01-30T03:39:07.157Z,101163.81
2023-01-30T03:41:34.483Z,101155.31
2023-01-30T03:44:02.597Z,101167.19
2023-01-30T03:46:29.718Z,101164.47
2023-01-30T03:48:56.772Z,101159.16
2023-01-30T03:51:23.747Z,101166.22
2023-01-30T03:53:51.536Z,101158.53
2023-01-30T03:56:18.760Z,101159.63
2023-01-30T03:58:46.035Z,101153.03
2023-01-30T04:01:18.836Z,101154.81
2023-01-30T04:03:47.000Z,101152.25
2023-01-30T04:06:14.844Z,101169.78
2023-01-30T04:08:42.158Z,101159.00
2023-01-30T04:11:14.596Z,101168.66
2023-01-30T04:13:41.526Z,101167.03
2023-01-30T04:16:23.841Z,101172.19
2023-01-30T04:19:09.540Z,101169.28
2023-01-30T04:21:37.476Z,101152.56
2023-01-30T04:24:04.583Z,101166.88
2023-01-30T04:26:31.384Z,101162.34
2023-01-30T04:28:58.562Z,101159.72
2023-01-30T04:31:27.410Z,101160.84
2023-01-30T04:34:02.183Z,101163.41
2023-01-30T04:36:31.791Z,101166.13
2023-01-30T04:38:58.654Z,101174.47
2023-01-30T04:41:27.091Z,101175.91
2023-01-30T04:43:59.166Z,101166.44
2023-01-30T04:46:34.604Z,101185.75
2023-01-30T04:49:01.549Z,101183.69
2023-01-30T04:51:28.474Z,101187.56
2023-01-30T04:53:57.265Z,101181.44
2023-01-30T04:56:24.165Z,101185.63
2023-01-30T04:58:52.631Z,101177.88
2023-01-30T05:01:26.615Z,101184.28
2023-01-30T05:03:55.044Z,101175.09
2023-01-30T05:06:22.870Z,101176.56
2023-01-30T05:08:54.943Z,101179.50
2023-01-30T05:11:23.878Z,101174.97
2023-01-30T05:13:51.705Z,101184.31
2023-01-30T05:16:20.751Z,101184.97
2023-01-30T05:18:47.844Z,101187.97
2023-01-30T05:21:17.963Z,101182.81
2023-01-30T05:23:45.185Z,101173.63
2023-01-30T05:26:13.862Z,101185.38
2023-01-30T05:28:41.680Z,101173.44
2023-01-30T05:31:11.458Z,101185.81
2023-01-30T05:33:39.451Z,101173.63
2023-01-30T05:36:07.099Z,101175.56
2023-01-30T05:38:34.104Z,101181.09
2023-01-30T05:41:06.096Z,101182.53
2023-01-30T05:43:34.630Z,101181.91
2023-01-30T05:46:03.904Z,101179.53
2023-01-30T05:48:31.191Z,101180.00
2023-01-30T05:50:59.107Z,101180.03
2023-01-30T05:53:32.161Z,101182.66
2023-01-30T05:56:01.584Z,101185.06
2023-01-30T05:58:29.319Z,101178.59
2023-01-30T06:01:01.214Z,101180.03
2023-01-30T06:03:28.255Z,101187.44
2023-01-30T06:05:55.231Z,101187.31
2023-01-30T06:08:22.969Z,101192.16
2023-01-30T06:10:50.103Z,101194.72
2023-01-30T06:13:17.034Z,101179.44
2023-01-30T06:15:44.073Z,101188.44
2023-01-30T06:18:11.235Z,101183.47
2023-01-30T06:20:38.691Z,101183.78
2023-01-30T06:23:05.686Z,101189.59
2023-01-30T06:25:32.573Z,101178.13
2023-01-30T06:27:59.405Z,101190.88
2023-01-30T06:30:26.380Z,101191.81
2023-01-30T06:32:53.565Z,101184.13
2023-01-30T06:35:21.442Z,101192.81
2023-01-30T06:37:48.647Z,101191.69
2023-01-30T06:40:15.817Z,101194.72
2023-01-30T06:42:47.005Z,101184.75
2023-01-30T06:45:16.616Z,101194.25
2023-01-30T06:47:52.433Z,101192.97
2023-01-30T06:50:22.028Z,101201.66
2023-01-30T06:52:51.370Z,101206.31
2023-01-30T06:55:21.627Z,101205.50
2023-01-30T06:57:50.161Z,101204.03
2023-01-30T07:00:21.577Z,101203.75
2023-01-30T07:02:48.529Z,101218.41
2023-01-30T07:05:15.421Z,101213.41
2023-01-30T07:07:42.279Z,101216.47
2023-01-30T07:10:12.280Z,101211.97
2023-01-30T07:12:39.430Z,101216.16
2023-01-30T07:15:07.268Z,101213.13
2023-01-30T07:17:34.260Z,101219.22
2023-01-30T07:20:01.508Z,101221.00
2023-01-30T07:22:28.532Z,101220.00
2023-01-30T07:24:55.583Z,101218.25
2023-01-30T07:27:22.554Z,101222.75
2023-01-30T07:29:51.882Z,101215.22
2023-01-30T07:32:21.166Z,101219.25
2023-01-30T07:34:48.181Z,101209.88
2023-01-30T07:37:15.392Z,101227.94
2023-01-30T07:39:42.382Z,101218.25
2023-01-30T07:42:09.625Z,101208.47
2023-01-30T07:44:36.575Z,101229.38
2023-01-30T07:47:03.749Z,101221.66
2023-01-30T07:49:30.803Z,101216.84
2023-01-30T07:51:57.890Z,101229.38
2023-01-30T07:54:25.285Z,101224.88
2023-01-30T07:56:52.401Z,101228.41
2023-01-30T07:59:19.544Z,101227.63
2023-01-30T08:01:47.070Z,101232.94
2023-01-30T08:04:14.116Z,101231.31
2023-01-30T08:06:41.061Z,101219.72
2023-01-30T08:09:08.085Z,101225.66
2023-01-30T08:11:35.161Z,101233.41
2023-01-30T08:14:02.384Z,101237.25
2023-01-30T08:16:32.329Z,101248.72
2023-01-30T08:18:59.976Z,101246.28
2023-01-30T08:21:27.019Z,101238.09
2023-01-30T08:23:53.990Z,101262.59
2023-01-30T08:26:22.328Z,101276.44
2023-01-30T08:28:50.107Z,101262.59
2023-01-30T08:31:17.889Z,101265.63
2023-01-30T08:33:45.346Z,101263.41
2023-01-30T08:36:12.290Z,101258.06
2023-01-30T08:38:39.215Z,101256.63
2023-01-30T08:41:08.407Z,101264.22
2023-01-30T08:43:35.488Z,101246.78
2023-01-30T08:46:02.674Z,101240.50
2023-01-30T08:48:36.950Z,101249.88
2023-01-30T08:51:15.217Z,101253.72
2023-01-30T08:53:42.489Z,101254.19
2023-01-30T08:56:09.489Z,101237.63
2023-01-30T08:58:36.817Z,101237.28
2023-01-30T09:01:07.695Z,101237.94
2023-01-30T09:03:34.963Z,101252.59
2023-01-30T09:06:02.174Z,101242.09
2023-01-30T09:08:29.269Z,101251.13
2023-01-30T09:11:00.577Z,101244.69
2023-01-30T09:13:28.481Z,101243.69
2023-01-30T09:15:55.517Z,101247.91
2023-01-30T09:18:24.378Z,101266.94
2023-01-30T09:20:52.880Z,101261.59
2023-01-30T09:23:22.055Z,101243.72
2023-01-30T09:25:48.957Z,101262.59
2023-01-30T09:28:16.695Z,101284.34
2023-01-30T09:30:44.055Z,101266.47
2023-01-30T09:33:10.974Z,101252.13
2023-01-30T09:35:37.930Z,101262.44
2023-01-30T09:38:05.850Z,101261.47
2023-01-30T09:40:36.812Z,101278.69
2023-01-30T09:43:30.046Z,101264.03
2023-01-30T09:46:38.402Z,101262.88
2023-01-30T09:49:19.023Z,101264.03
2023-01-30T09:52:16.365Z,101273.03
2023-01-30T09:54:45.629Z,101271.75
2023-01-30T09:57:21.634Z,101269.53
2023-01-30T09:59:57.898Z,101284.13
2023-01-30T10:02:50.125Z,101291.19
2023-01-30T10:05:17.712Z,101281.50
2023-01-30T10:07:57.418Z,101296.41
2023-01-30T10:10:43.833Z,101295.06
2023-01-30T10:13:52.172Z,101269.06
2023-01-30T10:16:27.281Z,101317.44
2023-01-30T10:18:59.797Z,101378.97
2023-01-30T10:21:41.927Z,101353.28
2023-01-30T10:24:26.855Z,101370.31
2023-01-30T10:26:54.959Z,101356.59
2023-01-30T10:29:37.033Z,101354.06
2023-01-30T10:32:09.839Z,101339.47
2023-01-30T10:34:43.403Z,101342.09
2023-01-30T10:37:15.692Z,101344.41
2023-01-30T10:40:10.934Z,101332.31
2023-01-30T10:42:52.943Z,101325.38
2023-01-30T10:45:25.544Z,101352.53
2023-01-30T10:47:52.639Z,101352.66
2023-01-30T10:50:27.423Z,101336.00
2023-01-30T10:53:06.729Z,101350.91
2023-01-30T10:55:59.839Z,101357.53
2023-01-30T10:58:42.819Z,101360.16
2023-01-30T11:01:37.844Z,101353.41
2023-01-30T11:04:29.852Z,101378.44
2023-01-30T11:06:59.932Z,101371.06
2023-01-30T11:10:00.313Z,101372.84
2023-01-30T11:12:27.662Z,101390.13
2023-01-30T11:14:59.987Z,101413.34
2023-01-30T11:17:38.833Z,101395.63
2023-01-30T11:20:24.961Z,101385.63
2023-01-30T11:23:21.488Z,101404.94
2023-01-30T11:26:05.712Z,101403.25
2023-01-30T11:28:42.937Z,101408.03
2023-01-30T11:31:38.914Z,101390.81
2023-01-30T11:34:17.344Z,101402.34
2023-01-30T11:36:47.262Z,101435.06
2023-01-30T11:39:14.508Z,101418.63
2023-01-30T11:41:57.364Z,101412.56
2023-01-30T11:45:00.746Z,101442.13
2023-01-30T11:47:33.780Z,101431.88
2023-01-30T11:50:20.074Z,101439.19
2023-01-30T11:52:51.136Z,101463.59
2023-01-30T11:55:21.503Z,101450.38
2023-01-30T11:57:54.339Z,101512.47
2023-01-30T12:00:37.142Z,101462.69
2023-01-30T12:03:10.161Z,101446.88
2023-01-30T12:05:42.883Z,101463.97
2023-01-30T12:08:39.460Z,101468.94
2023-01-30T12:11:37.226Z,101476.06
2023-01-30T12:14:18.190Z,101460.44
2023-01-30T12:17:03.171Z,101477.41
2023-01-30T12:19:42.415Z,101476.59
2023-01-30T12:22:21.409Z,101492.41
2023-01-30T12:24:59.445Z,101474.94
2023-01-30T12:28:11.950Z,101480.75
2023-01-30T12:30:51.913Z,101479.31
2023-01-30T12:33:20.298Z,101475.13
2023-01-30T12:35:50.227Z,101473.50
2023-01-30T12:38:26.575Z,101494.63
2023-01-30T12:41:15.521Z,101495.94
2023-01-30T12:44:08.209Z,101497.72
2023-01-30T12:47:00.469Z,101501.47
2023-01-30T12:50:06.861Z,101501.13
2023-01-30T12:52:51.848Z,101505.31
2023-01-30T12:55:26.586Z,101513.25
2023-01-30T12:58:13.876Z,101516.97
2023-01-30T13:00:56.722Z,101514.84
2023-01-30T13:03:49.917Z,101506.13
2023-01-30T13:06:42.058Z,101511.78
2023-01-30T13:09:14.641Z,101528.59
2023-01-30T13:11:56.660Z,101517.28
2023-01-30T13:14:46.624Z,101520.84
2023-01-30T13:17:51.276Z,101518.28
2023-01-30T13:20:36.715Z,101523.09
2023-01-30T13:23:22.614Z,101542.16
2023-01-30T13:26:04.843Z,101549.91
2023-01-30T13:28:38.206Z,101546.19
2023-01-30T13:31:09.734Z,101554.75
2023-01-30T13:33:43.017Z,101558.78
2023-01-30T13:36:33.997Z,101552.34
2023-01-30T13:39:25.940Z,101564.28
2023-01-30T13:41:58.683Z,101577.19
2023-01-30T13:44:31.015Z,101566.22
2023-01-30T13:47:05.830Z,101569.94
2023-01-30T13:50:00.199Z,101583.47
2023-01-30T13:52:38.199Z,101578.94
2023-01-30T13:55:30.274Z,101611.38
2023-01-30T13:58:26.560Z,101596.38
2023-01-30T14:00:55.824Z,101611.84
2023-01-30T14:03:30.607Z,101626.38
2023-01-30T14:05:59.490Z,101636.53
2023-01-30T14:08:51.188Z,101624.47
2023-01-30T14:11:49.097Z,101647.03
2023-01-30T14:14:20.099Z,101650.72
2023-01-30T14:17:08.331Z,101641.38
2023-01-30T14:19:39.948Z,101658.97
2023-01-30T14:22:28.167Z,101670.00
2023-01-30T14:25:22.887Z,101676.13
2023-01-30T14:27:53.036Z,101675.13
2023-01-30T14:30:38.228Z,101684.00
2023-01-30T14:33:25.264Z,101701.09
2023-01-30T14:36:01.188Z,101684.28
2023-01-30T14:39:11.787Z,101708.28
2023-01-30T14:41:38.760Z,101701.81
2023-01-30T14:44:07.524Z,101705.19
2023-01-30T14:46:54.540Z,101703.59
2023-01-30T14:49:29.951Z,101714.75
2023-01-30T14:51:57.788Z,101725.38
2023-01-30T14:54:41.142Z,101724.91
2023-01-30T14:57:23.610Z,101720.88
2023-01-30T15:02:55.580Z,101743.25
2023-01-30T15:05:27.866Z,101749.16
2023-01-30T15:08:06.791Z,101747.69
2023-01-30T15:11:01.805Z,101762.34
2023-01-30T15:13:38.281Z,101744.06
2023-01-30T15:16:28.736Z,101784.50
2023-01-30T15:19:27.364Z,101771.91
2023-01-30T15:22:00.486Z,101775.94
2023-01-30T15:24:39.493Z,101777.72
2023-01-30T15:27:31.747Z,101805.84
2023-01-30T15:30:19.231Z,101792.28
2023-01-30T15:32:47.115Z,101799.94
2023-01-30T15:35:16.963Z,101802.06
2023-01-30T15:37:49.024Z,101800.56
2023-01-30T15:40:18.031Z,101817.81
2023-01-30T15:42:48.048Z,101824.31
2023-01-30T15:46:06.327Z,101829.59
2023-01-30T15:48:57.827Z,101835.97
2023-01-30T15:51:28.424Z,101836.31
2023-01-30T15:53:57.504Z,101841.56
2023-01-30T15:56:28.566Z,101847.78
2023-01-30T15:58:58.728Z,101860.44
2023-01-30T16:01:26.281Z,101855.09
2023-01-30T16:03:53.817Z,101857.91
2023-01-30T16:06:39.464Z,101882.25
2023-01-30T16:09:20.894Z,101888.56
2023-01-30T16:11:51.754Z,101893.00
2023-01-30T16:14:21.826Z,101899.78
2023-01-30T16:17:03.816Z,101907.78
2023-01-30T16:19:38.242Z,101913.81
2023-01-30T16:22:17.165Z,101920.97
2023-01-30T16:24:48.185Z,101923.28
2023-01-30T16:27:24.292Z,101922.38
2023-01-30T16:29:55.896Z,101927.84
2023-01-30T16:32:29.817Z,101941.84
2023-01-30T16:35:27.228Z,101951.16
2023-01-30T16:37:56.952Z,101950.94
2023-01-30T16:40:26.876Z,101954.34
2023-01-30T16:42:58.837Z,101959.81
2023-01-30T16:45:34.938Z,101969.16
2023-01-30T16:48:34.790Z,101973.59
2023-01-30T16:51:02.044Z,101984.53
2023-01-30T16:53:31.168Z,101988.16
2023-01-30T16:56:11.121Z,102002.75
2023-01-30T16:58:38.831Z,101996.75
2023-01-30T17:01:08.753Z,102006.19
2023-01-30T17:03:39.469Z,102006.56
2023-01-30T17:06:20.039Z,102009.31
2023-01-30T17:08:55.469Z,102019.88
2023-01-30T17:14:30.937Z,102039.69
2023-01-30T17:17:10.278Z,102028.69
2023-01-30T17:19:38.421Z,102032.19
2023-01-30T17:22:08.637Z,102033.56
2023-01-30T17:24:36.169Z,102041.16
2023-01-30T17:27:04.789Z,102034.94
2023-01-30T17:29:48.861Z,102041.53
2023-01-30T17:32:16.279Z,102040.94
2023-01-30T17:34:43.244Z,102046.44
2023-01-30T17:37:20.975Z,102057.16
2023-01-30T17:39:48.670Z,102062.50
2023-01-30T17:42:22.551Z,102065.50
2023-01-30T17:44:50.050Z,102064.41
2023-01-30T17:47:17.556Z,102066.66
2023-01-30T17:49:45.213Z,102066.34
2023-01-30T17:52:13.865Z,102076.25
2023-01-30T17:54:40.770Z,102073.44
2023-01-30T17:57:10.966Z,102077.66
2023-01-30T17:59:38.213Z,102075.34
2023-01-30T18:02:07.065Z,102078.75
2023-01-30T18:04:34.446Z,102075.25
2023-01-30T18:07:04.842Z,102078.06
2023-01-30T18:09:32.120Z,102080.03
2023-01-30T18:11:59.137Z,102087.06
2023-01-30T18:14:26.050Z,102084.56
2023-01-30T18:16:53.310Z,102088.34
2023-01-30T18:19:24.354Z,102084.53
2023-01-30T18:21:51.860Z,102088.81
2023-01-30T18:24:19.531Z,102094.44
2023-01-30T18:26:48.103Z,102100.56
2023-01-30T18:29:15.787Z,102098.56
2023-01-30T18:31:43.103Z,102109.69
2023-01-30T18:34:11.533Z,102107.47
2023-01-30T18:36:39.182Z,102113.69
2023-01-30T18:39:06.454Z,102115.59
2023-01-30T18:41:35.882Z,102115.38
2023-01-30T18:44:07.754Z,102125.81
2023-01-30T18:46:35.205Z,102121.81
2023-01-30T18:49:02.848Z,102128.47
2023-01-30T18:51:33.938Z,102132.38
2023-01-30T18:54:02.326Z,102130.94
2023-01-30T18:56:32.058Z,102134.16
2023-01-30T18:59:02.919Z,102128.59
2023-01-30T19:01:40.143Z,102140.09
2023-01-30T19:04:09.472Z,102150.56
2023-01-30T19:06:39.813Z,102153.66
2023-01-30T19:09:07.809Z,102159.16
2023-01-30T19:11:53.849Z,102154.25
2023-01-30T19:14:21.674Z,102161.81
2023-01-30T19:16:51.212Z,102162.22
2023-01-30T19:19:18.525Z,102155.81
2023-01-30T19:21:45.584Z,102170.81
2023-01-30T19:24:15.483Z,102169.13
2023-01-30T19:26:43.773Z,102168.84
2023-01-30T19:29:12.481Z,102171.28
2023-01-30T19:31:39.930Z,102173.38
2023-01-30T19:34:07.159Z,102177.97
2023-01-30T19:36:36.029Z,102175.47
2023-01-30T19:39:05.883Z,102181.44
2023-01-30T19:41:36.119Z,102173.31
2023-01-30T19:44:05.533Z,102188.66
2023-01-30T19:46:32.606Z,102184.59
2023-01-30T19:48:59.933Z,102186.75
2023-01-30T19:51:30.007Z,102197.75
2023-01-30T19:53:59.723Z,102193.97
2023-01-30T19:56:28.380Z,102201.50
2023-01-30T19:58:58.477Z,102197.53
2023-01-30T20:01:29.997Z,102192.69
2023-01-30T20:03:58.956Z,102192.97
2023-01-30T20:06:29.504Z,102204.78
2023-01-30T20:09:02.601Z,102209.50
2023-01-30T20:11:31.031Z,102208.75
2023-01-30T20:13:59.089Z,102205.50
2023-01-30T20:16:27.838Z,102203.63
2023-01-30T20:19:00.478Z,102221.97
2023-01-30T20:21:29.473Z,102215.44
2023-01-30T20:23:56.902Z,102211.91
2023-01-30T20:26:30.081Z,102206.16
2023-01-30T20:28:57.914Z,102224.47
2023-01-30T20:31:27.212Z,102209.38
2023-01-30T20:33:56.919Z,102216.69
2023-01-30T20:36:25.864Z,102231.34
2023-01-30T20:38:54.012Z,102220.06
2023-01-30T20:41:24.340Z,102222.19
2023-01-30T20:43:54.325Z,102220.38
2023-01-30T20:46:23.648Z,102226.34
2023-01-30T20:48:54.547Z,102229.41
2023-01-30T20:51:27.985Z,102227.59
2023-01-30T20:53:58.303Z,102229.28
2023-01-30T20:56:27.421Z,102226.88
2023-01-30T20:58:54.487Z,102220.34
2023-01-30T21:01:24.268Z,102224.19
2023-01-30T21:03:53.361Z,102227.44
2023-01-30T21:06:41.886Z,102216.19
2023-01-30T21:09:21.496Z,102220.31
2023-01-30T21:11:50.339Z,102217.03
2023-01-30T21:14:17.849Z,102223.31
2023-01-30T21:16:45.207Z,102214.78
2023-01-30T21:19:16.366Z,102211.78
2023-01-30T21:21:53.509Z,102203.63
2023-01-30T21:24:28.866Z,102193.56
2023-01-30T21:26:56.596Z,102205.09
2023-01-30T21:29:25.564Z,102199.66
2023-01-30T21:31:53.429Z,102207.09
2023-01-30T21:34:21.236Z,102204.63
2023-01-30T21:37:08.527Z,102206.84
2023-01-30T21:39:53.948Z,102208.25
2023-01-30T21:42:40.825Z,102210.66
2023-01-30T21:45:08.597Z,102216.19
2023-01-30T21:47:35.929Z,102214.56
2023-01-30T21:50:03.307Z,102213.75
2023-01-30T21:52:32.131Z,102206.72
2023-01-30T21:54:59.181Z,102209.91
2023-01-30T21:57:26.230Z,102215.03
2023-01-30T21:59:53.222Z,102213.41
2023-01-30T22:02:21.082Z,102208.53
2023-01-30T22:04:48.272Z,102207.72
2023-01-30T22:07:15.142Z,102201.97
2023-01-30T22:09:42.364Z,102207.72
2023-01-30T22:12:11.128Z,102208.53
2023-01-30T22:14:38.641Z,102209.31
2023-01-30T22:17:05.901Z,102197.94
2023-01-30T22:19:35.733Z,102194.94
2023-01-30T22:22:03.494Z,102204.22
2023-01-30T22:24:30.720Z,102197.19
2023-01-30T22:26:58.261Z,102197.75
2023-01-30T22:29:25.182Z,102199.38
2023-01-30T22:31:52.354Z,102201.59
2023-01-30T22:34:20.082Z,102200.22
2023-01-30T22:36:47.963Z,102205.19
2023-01-30T22:39:15.640Z,102197.84
2023-01-30T22:41:42.872Z,102205.22
2023-01-30T22:44:10.767Z,102200.88
2023-01-30T22:46:40.213Z,102205.00
2023-01-30T22:49:08.886Z,102209.41
2023-01-30T22:51:38.558Z,102205.84
2023-01-30T22:54:10.151Z,102200.97
2023-01-30T22:56:38.473Z,102211.63
2023-01-30T22:59:06.383Z,102202.91
2023-01-30T23:01:37.157Z,102210.59
2023-01-30T23:04:16.126Z,102210.91
2023-01-30T23:06:43.787Z,102205.72
2023-01-30T23:09:14.288Z,102197.84
2023-01-30T23:12:10.017Z,102193.50
2023-01-30T23:14:37.987Z,102197.03
2023-01-30T23:17:26.381Z,102198.16
2023-01-30T23:19:54.554Z,102200.38
2023-01-30T23:22:21.737Z,102211.03
2023-01-30T23:24:49.987Z,102214.28
2023-01-30T23:27:17.020Z,102204.47
2023-01-30T23:29:44.312Z,102194.94
2023-01-30T23:32:11.406Z,102185.41
2023-01-30T23:34:38.495Z,102188.94
2023-01-30T23:37:05.858Z,102190.84
2023-01-30T23:39:32.838Z,102197.16
2023-01-30T23:41:59.632Z,102190.34
2023-01-30T23:44:26.649Z,102183.53
2023-01-30T23:46:53.790Z,102181.06
2023-01-30T23:49:21.522Z,102181.06
2023-01-30T23:51:48.443Z,102184.63
2023-01-30T23:54:16.261Z,102191.16
2023-01-30T23:56:44.875Z,102183.53
2023-01-30T23:59:12.732Z,102183.53
